sensor_id;sensor_type;location;lat;lon;timestamp;pressure;altitude;pressure_sealevel;temperature;humidity
33859;BME280;20156;47.486;12.074;2022-07-29T00:00:35;95530.28;;;18.20;100.00
33859;BME280;20156;47.486;12.074;2022-07-29T00:03:02;95531.63;;;18.22;100.00
33859;BME280;20156;47.486;12.074;2022-07-29T00:05:27;95532.38;;;18.18;100.00
33859;BME280;20156;47.486;12.074;2022-07-29T00:07:53;95529.50;;;18.41;100.00
33859;BME280;20156;47.486;12.074;2022-07-29T00:10:19;95529.69;;;18.56;100.00
33859;BME280;20156;47.486;12.074;2022-07-29T00:12:44;95526.31;;;18.61;100.00
33859;BME280;20156;47.486;12.074;2022-07-29T00:15:09;95519.13;;;18.73;100.00
33859;BME280;20156;47.486;12.074;2022-07-29T00:17:35;95525.06;;;18.63;100.00
33859;BME280;20156;47.486;12.074;2022-07-29T00:20:00;95522.78;;;18.50;100.00
33859;BME280;20156;47.486;12.074;2022-07-29T00:22:26;95516.44;;;18.29;100.00
33859;BME280;20156;47.486;12.074;2022-07-29T00:24:51;95516.78;;;18.33;100.00
33859;BME280;20156;47.486;12.074;2022-07-29T00:27:17;95513.00;;;18.68;100.00
33859;BME280;20156;47.486;12.074;2022-07-29T00:29:43;95521.50;;;18.53;100.00
33859;BME280;20156;47.486;12.074;2022-07-29T00:32:08;95510.56;;;18.22;100.00
33859;BME280;20156;47.486;12.074;2022-07-29T00:34:34;95511.53;;;18.16;100.00
33859;BME280;20156;47.486;12.074;2022-07-29T00:37:18;95502.75;;;18.11;100.00
33859;BME280;20156;47.486;12.074;2022-07-29T00:39:43;95506.69;;;18.08;100.00
33859;BME280;20156;47.486;12.074;2022-07-29T00:42:09;95494.56;;;18.29;100.00
33859;BME280;20156;47.486;12.074;2022-07-29T00:44:38;95491.16;;;18.50;100.00
33859;BME280;20156;47.486;12.074;2022-07-29T00:47:04;95499.81;;;18.68;100.00
33859;BME280;20156;47.486;12.074;2022-07-29T00:49:30;95491.63;;;18.91;100.00
33859;BME280;20156;47.486;12.074;2022-07-29T00:51:56;95490.78;;;18.85;100.00
33859;BME280;20156;47.486;12.074;2022-07-29T00:54:22;95496.50;;;19.04;100.00
33859;BME280;20156;47.486;12.074;2022-07-29T00:56:47;95498.06;;;18.56;100.00
33859;BME280;20156;47.486;12.074;2022-07-29T00:59:13;95502.19;;;18.91;100.00
33859;BME280;20156;47.486;12.074;2022-07-29T01:01:38;95500.09;;;19.20;100.00
33859;BME280;20156;47.486;12.074;2022-07-29T01:04:05;95498.16;;;18.83;100.00
33859;BME280;20156;47.486;12.074;2022-07-29T01:06:32;95501.81;;;18.60;100.00
33859;BME280;20156;47.486;12.074;2022-07-29T01:08:59;95509.25;;;18.63;100.00
33859;BME280;20156;47.486;12.074;2022-07-29T01:11:25;95510.66;;;18.71;100.00
33859;BME280;20156;47.486;12.074;2022-07-29T01:13:51;95506.81;;;18.62;100.00
33859;BME280;20156;47.486;12.074;2022-07-29T01:16:38;95503.00;;;18.97;100.00
33859;BME280;20156;47.486;12.074;2022-07-29T01:28:08;95493.06;;;18.55;100.00
33859;BME280;20156;47.486;12.074;2022-07-29T01:30:44;95487.69;;;18.93;100.00
33859;BME280;20156;47.486;12.074;2022-07-29T01:33:13;95477.34;;;18.87;100.00
33859;BME280;20156;47.486;12.074;2022-07-29T01:36:16;95472.53;;;19.06;100.00
33859;BME280;20156;47.486;12.074;2022-07-29T01:38:44;95465.06;;;18.98;100.00
33859;BME280;20156;47.486;12.074;2022-07-29T01:41:16;95471.53;;;18.19;100.00
33859;BME280;20156;47.486;12.074;2022-07-29T01:43:56;95453.72;;;18.04;100.00
33859;BME280;20156;47.486;12.074;2022-07-29T01:46:31;95450.13;;;17.94;100.00
33859;BME280;20156;47.486;12.074;2022-07-29T01:49:21;95437.91;;;18.26;100.00
33859;BME280;20156;47.486;12.074;2022-07-29T01:51:54;95423.38;;;18.68;100.00
33859;BME280;20156;47.486;12.074;2022-07-29T01:57:00;95425.34;;;18.12;100.00
33859;BME280;20156;47.486;12.074;2022-07-29T01:59:28;95425.53;;;18.71;100.00
33859;BME280;20156;47.486;12.074;2022-07-29T02:01:57;95423.00;;;18.59;100.00
33859;BME280;20156;47.486;12.074;2022-07-29T02:04:24;95426.69;;;18.36;100.00
33859;BME280;20156;47.486;12.074;2022-07-29T02:06:52;95425.03;;;18.30;100.00
33859;BME280;20156;47.486;12.074;2022-07-29T02:09:20;95416.72;;;18.87;100.00
33859;BME280;20156;47.486;12.074;2022-07-29T02:11:52;95417.41;;;19.04;100.00
33859;BME280;20156;47.486;12.074;2022-07-29T02:14:20;95413.59;;;18.95;100.00
33859;BME280;20156;47.486;12.074;2022-07-29T02:16:48;95419.13;;;18.45;100.00
33859;BME280;20156;47.486;12.074;2022-07-29T02:19:17;95411.78;;;18.47;100.00
33859;BME280;20156;47.486;12.074;2022-07-29T02:21:44;95412.19;;;18.60;100.00
33859;BME280;20156;47.486;12.074;2022-07-29T02:24:11;95418.66;;;18.48;100.00
33859;BME280;20156;47.486;12.074;2022-07-29T02:26:38;95412.19;;;18.60;100.00
33859;BME280;20156;47.486;12.074;2022-07-29T02:29:04;95410.00;;;18.74;100.00
33859;BME280;20156;47.486;12.074;2022-07-29T02:31:33;95408.47;;;18.56;100.00
33859;BME280;20156;47.486;12.074;2022-07-29T02:34:01;95410.59;;;18.11;100.00
33859;BME280;20156;47.486;12.074;2022-07-29T02:36:29;95401.53;;;18.01;100.00
33859;BME280;20156;47.486;12.074;2022-07-29T02:38:56;95389.44;;;18.49;100.00
33859;BME280;20156;47.486;12.074;2022-07-29T02:41:48;95393.88;;;18.22;100.00
33859;BME280;20156;47.486;12.074;2022-07-29T02:44:19;95405.72;;;17.97;100.00
33859;BME280;20156;47.486;12.074;2022-07-29T02:46:58;95395.34;;;18.13;100.00
33859;BME280;20156;47.486;12.074;2022-07-29T02:49:43;95392.59;;;17.81;100.00
33859;BME280;20156;47.486;12.074;2022-07-29T02:52:20;95397.06;;;17.47;100.00
33859;BME280;20156;47.486;12.074;2022-07-29T02:54:56;95396.97;;;17.97;100.00
33859;BME280;20156;47.486;12.074;2022-07-29T02:57:36;95402.81;;;17.99;100.00
33859;BME280;20156;47.486;12.074;2022-07-29T03:00:07;95405.06;;;18.12;100.00
33859;BME280;20156;47.486;12.074;2022-07-29T03:02:36;95394.34;;;17.97;100.00
33859;BME280;20156;47.486;12.074;2022-07-29T03:05:04;95398.16;;;18.28;100.00
33859;BME280;20156;47.486;12.074;2022-07-29T03:07:31;95410.78;;;18.04;100.00
33859;BME280;20156;47.486;12.074;2022-07-29T03:09:58;95414.25;;;17.88;100.00
33859;BME280;20156;47.486;12.074;2022-07-29T03:12:25;95405.63;;;17.03;100.00
33859;BME280;20156;47.486;12.074;2022-07-29T03:14:52;95406.72;;;17.74;100.00
33859;BME280;20156;47.486;12.074;2022-07-29T03:17:18;95409.44;;;16.96;100.00
33859;BME280;20156;47.486;12.074;2022-07-29T03:19:44;95402.28;;;17.80;100.00
33859;BME280;20156;47.486;12.074;2022-07-29T03:22:10;95411.97;;;17.96;100.00
33859;BME280;20156;47.486;12.074;2022-07-29T03:24:36;95409.13;;;17.42;100.00
33859;BME280;20156;47.486;12.074;2022-07-29T03:27:03;95413.66;;;17.64;100.00
33859;BME280;20156;47.486;12.074;2022-07-29T03:29:28;95406.75;;;17.24;100.00
33859;BME280;20156;47.486;12.074;2022-07-29T03:31:54;95403.81;;;17.21;100.00
33859;BME280;20156;47.486;12.074;2022-07-29T03:34:20;95400.25;;;17.65;100.00
33859;BME280;20156;47.486;12.074;2022-07-29T03:36:46;95404.53;;;17.88;100.00
33859;BME280;20156;47.486;12.074;2022-07-29T03:39:14;95407.69;;;18.12;100.00
33859;BME280;20156;47.486;12.074;2022-07-29T03:41:42;95414.81;;;18.12;100.00
33859;BME280;20156;47.486;12.074;2022-07-29T03:44:09;95414.22;;;18.04;100.00
33859;BME280;20156;47.486;12.074;2022-07-29T03:46:37;95412.19;;;17.90;100.00
33859;BME280;20156;47.486;12.074;2022-07-29T03:49:04;95415.19;;;17.09;100.00
33859;BME280;20156;47.486;12.074;2022-07-29T03:51:33;95408.72;;;17.51;100.00
33859;BME280;20156;47.486;12.074;2022-07-29T03:54:01;95413.66;;;17.64;100.00
33859;BME280;20156;47.486;12.074;2022-07-29T03:56:28;95425.34;;;17.90;100.00
33859;BME280;20156;47.486;12.074;2022-07-29T03:58:55;95425.59;;;18.10;100.00
33859;BME280;20156;47.486;12.074;2022-07-29T04:01:21;95436.22;;;18.15;100.00
33859;BME280;20156;47.486;12.074;2022-07-29T04:03:47;95434.13;;;18.17;100.00
33859;BME280;20156;47.486;12.074;2022-07-29T04:06:14;95431.00;;;17.98;100.00
33859;BME280;20156;47.486;12.074;2022-07-29T04:08:39;95430.84;;;18.10;100.00
33859;BME280;20156;47.486;12.074;2022-07-29T04:11:05;95424.19;;;18.02;100.00
33859;BME280;20156;47.486;12.074;2022-07-29T04:13:31;95425.59;;;18.10;100.00
33859;BME280;20156;47.486;12.074;2022-07-29T04:15:58;95426.06;;;18.29;100.00
33859;BME280;20156;47.486;12.074;2022-07-29T04:18:24;95423.41;;;18.02;100.00
33859;BME280;20156;47.486;12.074;2022-07-29T04:20:49;95429.03;;;18.11;100.00
33859;BME280;20156;47.486;12.074;2022-07-29T04:23:15;95433.03;;;17.96;100.00
33859;BME280;20156;47.486;12.074;2022-07-29T04:25:42;95435.56;;;18.08;100.00
33859;BME280;20156;47.486;12.074;2022-07-29T04:28:08;95436.75;;;17.62;100.00
33859;BME280;20156;47.486;12.074;2022-07-29T04:30:35;95428.16;;;17.66;100.00
33859;BME280;20156;47.486;12.074;2022-07-29T04:33:02;95431.94;;;17.70;100.00
33859;BME280;20156;47.486;12.074;2022-07-29T04:35:29;95442.72;;;18.13;100.00
33859;BME280;20156;47.486;12.074;2022-07-29T04:37:54;95436.63;;;18.29;100.00
33859;BME280;20156;47.486;12.074;2022-07-29T04:40:20;95439.59;;;17.94;100.00
33859;BME280;20156;47.486;12.074;2022-07-29T04:42:46;95441.75;;;17.97;100.00
33859;BME280;20156;47.486;12.074;2022-07-29T04:45:11;95446.78;;;17.98;100.00
33859;BME280;20156;47.486;12.074;2022-07-29T04:47:36;95451.88;;;18.05;100.00
33859;BME280;20156;47.486;12.074;2022-07-29T04:50:02;95462.59;;;17.98;100.00
33859;BME280;20156;47.486;12.074;2022-07-29T04:52:28;95451.50;;;18.18;100.00
33859;BME280;20156;47.486;12.074;2022-07-29T04:54:53;95453.44;;;17.67;100.00
33859;BME280;20156;47.486;12.074;2022-07-29T04:57:19;95449.75;;;17.85;100.00
33859;BME280;20156;47.486;12.074;2022-07-29T04:59:44;95453.97;;;18.25;100.00
33859;BME280;20156;47.486;12.074;2022-07-29T05:02:09;95460.88;;;18.09;100.00
33859;BME280;20156;47.486;12.074;2022-07-29T05:04:35;95463.38;;;17.99;100.00
33859;BME280;20156;47.486;12.074;2022-07-29T05:07:00;95463.19;;;18.27;100.00
33859;BME280;20156;47.486;12.074;2022-07-29T05:09:26;95456.84;;;18.67;100.00
33859;BME280;20156;47.486;12.074;2022-07-29T05:11:51;95452.88;;;18.91;100.00
33859;BME280;20156;47.486;12.074;2022-07-29T05:14:17;95460.78;;;18.65;100.00
33859;BME280;20156;47.486;12.074;2022-07-29T05:16:42;95463.56;;;18.58;100.00
33859;BME280;20156;47.486;12.074;2022-07-29T05:19:08;95461.72;;;18.58;100.00
33859;BME280;20156;47.486;12.074;2022-07-29T05:21:34;95465.69;;;18.61;100.00
33859;BME280;20156;47.486;12.074;2022-07-29T05:23:59;95462.41;;;18.27;100.00
33859;BME280;20156;47.486;12.074;2022-07-29T05:26:24;95457.25;;;18.81;100.00
33859;BME280;20156;47.486;12.074;2022-07-29T05:28:50;95452.97;;;18.75;100.00
33859;BME280;20156;47.486;12.074;2022-07-29T05:31:15;95462.41;;;18.71;100.00
33859;BME280;20156;47.486;12.074;2022-07-29T05:33:41;95465.16;;;18.59;100.00
33859;BME280;20156;47.486;12.074;2022-07-29T05:36:07;95463.84;;;18.61;100.00
33859;BME280;20156;47.486;12.074;2022-07-29T05:38:33;95468.22;;;18.29;100.00
33859;BME280;20156;47.486;12.074;2022-07-29T05:40:58;95464.44;;;18.63;100.00
33859;BME280;20156;47.486;12.074;2022-07-29T05:43:25;95466.75;;;18.82;100.00
33859;BME280;20156;47.486;12.074;2022-07-29T05:45:50;95458.88;;;19.46;100.00
33859;BME280;20156;47.486;12.074;2022-07-29T05:48:16;95463.47;;;19.56;100.00
33859;BME280;20156;47.486;12.074;2022-07-29T05:50:41;95458.91;;;19.83;100.00
33859;BME280;20156;47.486;12.074;2022-07-29T05:53:06;95469.78;;;19.92;100.00
33859;BME280;20156;47.486;12.074;2022-07-29T05:55:32;95466.44;;;19.64;100.00
33859;BME280;20156;47.486;12.074;2022-07-29T05:57:57;95464.19;;;19.83;100.00
33859;BME280;20156;47.486;12.074;2022-07-29T06:00:22;95455.94;;;20.17;100.00
33859;BME280;20156;47.486;12.074;2022-07-29T06:02:48;95466.41;;;20.01;100.00
33859;BME280;20156;47.486;12.074;2022-07-29T06:05:13;95462.13;;;19.90;100.00
33859;BME280;20156;47.486;12.074;2022-07-29T06:07:40;95457.53;;;20.23;100.00
33859;BME280;20156;47.486;12.074;2022-07-29T06:10:06;95459.13;;;20.24;100.00
33859;BME280;20156;47.486;12.074;2022-07-29T06:12:31;95466.97;;;20.08;100.00
33859;BME280;20156;47.486;12.074;2022-07-29T06:14:57;95468.34;;;20.16;100.00
33859;BME280;20156;47.486;12.074;2022-07-29T06:17:23;95461.78;;;20.29;100.00
33859;BME280;20156;47.486;12.074;2022-07-29T06:19:48;95478.06;;;20.10;100.00
33859;BME280;20156;47.486;12.074;2022-07-29T06:22:15;95472.97;;;20.46;100.00
33859;BME280;20156;47.486;12.074;2022-07-29T06:24:41;95472.44;;;20.44;100.00
33859;BME280;20156;47.486;12.074;2022-07-29T06:27:11;95469.00;;;20.43;100.00
33859;BME280;20156;47.486;12.074;2022-07-29T06:29:37;95472.97;;;20.41;100.00
33859;BME280;20156;47.486;12.074;2022-07-29T06:32:03;95476.38;;;20.36;100.00
33859;BME280;20156;47.486;12.074;2022-07-29T06:34:28;95476.78;;;20.70;100.00
33859;BME280;20156;47.486;12.074;2022-07-29T06:36:54;95479.25;;;21.02;100.00
33859;BME280;20156;47.486;12.074;2022-07-29T06:39:19;95472.66;;;21.20;100.00
33859;BME280;20156;47.486;12.074;2022-07-29T06:41:49;95463.94;;;21.45;100.00
33859;BME280;20156;47.486;12.074;2022-07-29T06:44:16;95468.97;;;21.72;100.00
33859;BME280;20156;47.486;12.074;2022-07-29T06:46:42;95467.91;;;21.78;100.00
33859;BME280;20156;47.486;12.074;2022-07-29T06:49:07;95462.63;;;21.63;100.00
33859;BME280;20156;47.486;12.074;2022-07-29T06:51:33;95463.97;;;21.35;100.00
33859;BME280;20156;47.486;12.074;2022-07-29T06:53:58;95461.31;;;21.71;100.00
33859;BME280;20156;47.486;12.074;2022-07-29T06:56:24;95460.22;;;21.31;100.00
33859;BME280;20156;47.486;12.074;2022-07-29T06:58:50;95460.22;;;21.21;100.00
33859;BME280;20156;47.486;12.074;2022-07-29T07:01:15;95457.84;;;21.60;100.00
33859;BME280;20156;47.486;12.074;2022-07-29T07:03:40;95466.88;;;21.34;100.00
33859;BME280;20156;47.486;12.074;2022-07-29T07:06:07;95457.31;;;21.22;100.00
33859;BME280;20156;47.486;12.074;2022-07-29T07:08:32;95453.59;;;21.03;100.00
33859;BME280;20156;47.486;12.074;2022-07-29T07:10:57;95454.59;;;20.82;100.00
33859;BME280;20156;47.486;12.074;2022-07-29T07:13:23;95448.31;;;21.69;100.00
33859;BME280;20156;47.486;12.074;2022-07-29T07:15:49;95450.16;;;21.74;100.00
33859;BME280;20156;47.486;12.074;2022-07-29T07:18:16;95447.53;;;21.63;100.00
33859;BME280;20156;47.486;12.074;2022-07-29T07:20:42;95445.94;;;21.17;100.00
33859;BME280;20156;47.486;12.074;2022-07-29T07:23:07;95451.47;;;21.05;100.00
33859;BME280;20156;47.486;12.074;2022-07-29T07:25:33;95443.31;;;21.42;100.00
33859;BME280;20156;47.486;12.074;2022-07-29T07:27:59;95445.41;;;21.66;100.00
33859;BME280;20156;47.486;12.074;2022-07-29T07:30:24;95446.16;;;21.81;100.00
33859;BME280;20156;47.486;12.074;2022-07-29T07:32:50;95446.19;;;21.71;100.00
33859;BME280;20156;47.486;12.074;2022-07-29T07:35:15;95452.31;;;21.36;100.00
33859;BME280;20156;47.486;12.074;2022-07-29T07:37:41;95445.94;;;21.73;100.00
33859;BME280;20156;47.486;12.074;2022-07-29T07:40:08;95451.00;;;21.39;100.00
33859;BME280;20156;47.486;12.074;2022-07-29T07:42:34;95447.81;;;21.52;100.00
33859;BME280;20156;47.486;12.074;2022-07-29T07:44:59;95442.16;;;22.04;100.00
33859;BME280;20156;47.486;12.074;2022-07-29T07:47:25;95445.63;;;21.95;100.00
33859;BME280;20156;47.486;12.074;2022-07-29T07:49:51;95440.94;;;22.56;100.00
33859;BME280;20156;47.486;12.074;2022-07-29T07:52:17;95444.84;;;22.69;100.00
33859;BME280;20156;47.486;12.074;2022-07-29T07:54:43;95441.09;;;22.20;100.00
33859;BME280;20156;47.486;12.074;2022-07-29T07:57:10;95436.38;;;23.11;100.00
33859;BME280;20156;47.486;12.074;2022-07-29T07:59:36;95445.47;;;23.05;100.00
33859;BME280;20156;47.486;12.074;2022-07-29T08:02:02;95448.91;;;22.46;100.00
33859;BME280;20156;47.486;12.074;2022-07-29T08:04:27;95443.44;;;23.26;100.00
33859;BME280;20156;47.486;12.074;2022-07-29T08:06:53;95438.97;;;23.21;100.00
33859;BME280;20156;47.486;12.074;2022-07-29T08:09:22;95433.88;;;22.91;100.00
33859;BME280;20156;47.486;12.074;2022-07-29T08:11:47;95430.31;;;22.56;100.00
33859;BME280;20156;47.486;12.074;2022-07-29T08:14:13;95425.19;;;22.75;100.00
33859;BME280;20156;47.486;12.074;2022-07-29T08:16:39;95429.66;;;23.24;100.00
33859;BME280;20156;47.486;12.074;2022-07-29T08:19:05;95419.47;;;23.70;100.00
33859;BME280;20156;47.486;12.074;2022-07-29T08:21:30;95416.47;;;23.77;100.00
33859;BME280;20156;47.486;12.074;2022-07-29T08:23:56;95414.59;;;24.01;100.00
33859;BME280;20156;47.486;12.074;2022-07-29T08:26:42;95420.63;;;24.12;100.00
33859;BME280;20156;47.486;12.074;2022-07-29T08:29:08;95425.53;;;24.23;100.00
33859;BME280;20156;47.486;12.074;2022-07-29T08:31:35;95426.00;;;24.30;100.00
33859;BME280;20156;47.486;12.074;2022-07-29T08:34:00;95425.91;;;24.41;100.00
33859;BME280;20156;47.486;12.074;2022-07-29T08:36:26;95430.34;;;24.21;100.00
33859;BME280;20156;47.486;12.074;2022-07-29T08:38:52;95424.41;;;24.53;100.00
33859;BME280;20156;47.486;12.074;2022-07-29T08:41:20;95424.44;;;24.72;100.00
33859;BME280;20156;47.486;12.074;2022-07-29T08:43:47;95421.75;;;24.72;100.00
33859;BME280;20156;47.486;12.074;2022-07-29T08:46:12;95417.81;;;24.88;100.00
33859;BME280;20156;47.486;12.074;2022-07-29T08:48:40;95416.19;;;24.69;100.00
33859;BME280;20156;47.486;12.074;2022-07-29T08:51:07;95419.63;;;25.12;100.00
33859;BME280;20156;47.486;12.074;2022-07-29T08:53:33;95417.47;;;25.46;100.00
33859;BME280;20156;47.486;12.074;2022-07-29T08:55:59;95419.00;;;25.34;100.00
33859;BME280;20156;47.486;12.074;2022-07-29T08:58:26;95410.50;;;25.64;100.00
33859;BME280;20156;47.486;12.074;2022-07-29T09:00:54;95409.97;;;25.48;100.00
33859;BME280;20156;47.486;12.074;2022-07-29T09:03:23;95408.06;;;25.68;100.00
33859;BME280;20156;47.486;12.074;2022-07-29T09:05:49;95414.59;;;25.75;100.00
33859;BME280;20156;47.486;12.074;2022-07-29T09:08:16;95417.91;;;25.67;100.00
33859;BME280;20156;47.486;12.074;2022-07-29T09:10:41;95408.91;;;25.63;100.00
33859;BME280;20156;47.486;12.074;2022-07-29T09:13:07;95408.31;;;25.66;100.00
33859;BME280;20156;47.486;12.074;2022-07-29T09:15:33;95406.53;;;25.94;100.00
33859;BME280;20156;47.486;12.074;2022-07-29T09:17:58;95404.53;;;26.14;100.00
33859;BME280;20156;47.486;12.074;2022-07-29T09:20:25;95397.72;;;26.49;100.00
33859;BME280;20156;47.486;12.074;2022-07-29T09:23:11;95382.50;;;26.35;100.00
33859;BME280;20156;47.486;12.074;2022-07-29T09:25:40;95368.09;;;25.95;100.00
33859;BME280;20156;47.486;12.074;2022-07-29T09:28:24;95364.53;;;26.14;100.00
33859;BME280;20156;47.486;12.074;2022-07-29T09:30:57;95353.69;;;26.74;100.00
33859;BME280;20156;47.486;12.074;2022-07-29T09:33:24;95351.38;;;26.81;100.00
33859;BME280;20156;47.486;12.074;2022-07-29T09:36:03;95348.59;;;26.50;100.00
33859;BME280;20156;47.486;12.074;2022-07-29T09:38:29;95358.50;;;26.22;100.00
33859;BME280;20156;47.486;12.074;2022-07-29T09:40:59;95366.00;;;26.47;100.00
33859;BME280;20156;47.486;12.074;2022-07-29T09:43:25;95363.44;;;26.28;100.00
33859;BME280;20156;47.486;12.074;2022-07-29T09:45:51;95358.09;;;26.56;100.00
33859;BME280;20156;47.486;12.074;2022-07-29T09:48:21;95354.28;;;27.07;100.00
33859;BME280;20156;47.486;12.074;2022-07-29T09:50:47;95355.75;;;26.99;100.00
33859;BME280;20156;47.486;12.074;2022-07-29T09:55:56;95338.34;;;27.24;100.00
33859;BME280;20156;47.486;12.074;2022-07-29T09:58:22;95340.41;;;27.27;100.00
33859;BME280;20156;47.486;12.074;2022-07-29T10:00:49;95330.72;;;27.71;100.00
33859;BME280;20156;47.486;12.074;2022-07-29T10:03:15;95322.44;;;27.81;100.00
33859;BME280;20156;47.486;12.074;2022-07-29T10:05:41;95319.66;;;27.95;100.00
33859;BME280;20156;47.486;12.074;2022-07-29T10:08:08;95317.47;;;28.05;100.00
33859;BME280;20156;47.486;12.074;2022-07-29T10:10:39;95319.88;;;28.24;100.00
33859;BME280;20156;47.486;12.074;2022-07-29T10:13:10;95323.47;;;28.20;100.00
33859;BME280;20156;47.486;12.074;2022-07-29T10:15:38;95321.91;;;28.10;100.00
33859;BME280;20156;47.486;12.074;2022-07-29T10:18:06;95318.78;;;28.25;100.00
33859;BME280;20156;47.486;12.074;2022-07-29T10:20:32;95319.59;;;28.26;100.00
33859;BME280;20156;47.486;12.074;2022-07-29T10:22:57;95312.38;;;28.95;100.00
33859;BME280;20156;47.486;12.074;2022-07-29T10:25:24;95303.75;;;28.90;100.00
33859;BME280;20156;47.486;12.074;2022-07-29T10:27:50;95300.06;;;28.86;100.00
33859;BME280;20156;47.486;12.074;2022-07-29T10:30:17;95301.06;;;28.90;100.00
33859;BME280;20156;47.486;12.074;2022-07-29T10:33:10;95300.84;;;28.26;100.00
33859;BME280;20156;47.486;12.074;2022-07-29T10:44:22;95274.47;;;29.31;100.00
33859;BME280;20156;47.486;12.074;2022-07-29T10:46:49;95270.28;;;29.60;100.00
33859;BME280;20156;47.486;12.074;2022-07-29T10:49:23;95266.22;;;29.45;100.00
33859;BME280;20156;47.486;12.074;2022-07-29T10:52:04;95277.56;;;28.95;100.00
33859;BME280;20156;47.486;12.074;2022-07-29T10:57:20;95263.41;;;29.42;100.00
33859;BME280;20156;47.486;12.074;2022-07-29T11:05:02;95256.28;;;28.30;100.00
33859;BME280;20156;47.486;12.074;2022-07-29T11:07:29;95250.78;;;28.26;100.00
33859;BME280;20156;47.486;12.074;2022-07-29T11:15:04;95246.06;;;29.77;100.00
33859;BME280;20156;47.486;12.074;2022-07-29T11:20:45;95241.94;;;30.01;100.00
33859;BME280;20156;47.486;12.074;2022-07-29T11:23:28;95245.88;;;28.80;100.00
33859;BME280;20156;47.486;12.074;2022-07-29T11:31:16;95227.69;;;29.12;100.00
33859;BME280;20156;47.486;12.074;2022-07-29T11:33:44;95222.31;;;29.58;100.00
33859;BME280;20156;47.486;12.074;2022-07-29T11:36:12;95226.06;;;28.46;100.00
33859;BME280;20156;47.486;12.074;2022-07-29T11:38:39;95222.72;;;28.75;100.00
33859;BME280;20156;47.486;12.074;2022-07-29T11:43:48;95223.53;;;28.41;100.00
33859;BME280;20156;47.486;12.074;2022-07-29T11:46:14;95226.84;;;28.56;100.00
33859;BME280;20156;47.486;12.074;2022-07-29T11:48:44;95226.69;;;28.26;100.00
33859;BME280;20156;47.486;12.074;2022-07-29T11:51:10;95216.25;;;28.94;100.00
33859;BME280;20156;47.486;12.074;2022-07-29T11:53:38;95216.56;;;27.97;100.00
33859;BME280;20156;47.486;12.074;2022-07-29T11:56:04;95213.72;;;28.71;100.00
33859;BME280;20156;47.486;12.074;2022-07-29T11:58:32;95209.66;;;29.29;100.00
33859;BME280;20156;47.486;12.074;2022-07-29T12:00:59;95209.25;;;30.28;100.00
33859;BME280;20156;47.486;12.074;2022-07-29T12:03:26;95214.97;;;30.27;100.00
33859;BME280;20156;47.486;12.074;2022-07-29T12:05:51;95208.41;;;29.86;100.00
33859;BME280;20156;47.486;12.074;2022-07-29T12:08:23;95194.72;;;30.95;100.00
33859;BME280;20156;47.486;12.074;2022-07-29T12:10:51;95192.00;;;31.40;100.00
33859;BME280;20156;47.486;12.074;2022-07-29T12:13:19;95186.03;;;31.23;100.00
33859;BME280;20156;47.486;12.074;2022-07-29T12:15:56;95200.59;;;30.64;85.98
33859;BME280;20156;47.486;12.074;2022-07-29T12:18:22;95195.94;;;29.90;92.34
33859;BME280;20156;47.486;12.074;2022-07-29T12:20:48;95200.44;;;29.98;93.74
33859;BME280;20156;47.486;12.074;2022-07-29T12:23:15;95193.88;;;29.66;85.80
33859;BME280;20156;47.486;12.074;2022-07-29T12:25:42;95185.91;;;30.62;93.25
33859;BME280;20156;47.486;12.074;2022-07-29T12:28:11;95183.91;;;30.71;92.19
33859;BME280;20156;47.486;12.074;2022-07-29T12:30:45;95184.91;;;29.62;99.96
33859;BME280;20156;47.486;12.074;2022-07-29T12:33:12;95183.06;;;29.45;100.00
33859;BME280;20156;47.486;12.074;2022-07-29T12:35:38;95180.41;;;29.36;100.00
33859;BME280;20156;47.486;12.074;2022-07-29T12:38:03;95171.81;;;29.60;100.00
33859;BME280;20156;47.486;12.074;2022-07-29T12:40:29;95180.22;;;29.80;91.67
33859;BME280;20156;47.486;12.074;2022-07-29T12:45:40;95165.78;;;30.68;100.00
33859;BME280;20156;47.486;12.074;2022-07-29T12:48:06;95176.63;;;30.17;93.83
33859;BME280;20156;47.486;12.074;2022-07-29T12:50:35;95174.41;;;30.40;92.67
33859;BME280;20156;47.486;12.074;2022-07-29T12:53:13;95166.50;;;31.01;87.58
33859;BME280;20156;47.486;12.074;2022-07-29T12:55:46;95160.19;;;32.07;92.46
33859;BME280;20156;47.486;12.074;2022-07-29T13:03:56;95150.94;;;31.07;81.16
33859;BME280;20156;47.486;12.074;2022-07-29T13:09:03;95145.75;;;30.44;92.61
33859;BME280;20156;47.486;12.074;2022-07-29T13:11:53;95146.25;;;31.65;93.37
33859;BME280;20156;47.486;12.074;2022-07-29T13:17:22;95142.06;;;31.06;83.87
33859;BME280;20156;47.486;12.074;2022-07-29T13:20:07;95148.94;;;30.92;85.05
33859;BME280;20156;47.486;12.074;2022-07-29T13:22:37;95138.38;;;30.53;91.55
33859;BME280;20156;47.486;12.074;2022-07-29T13:25:03;95136.31;;;30.71;93.74
33859;BME280;20156;47.486;12.074;2022-07-29T13:27:33;95143.06;;;30.44;89.97
33859;BME280;20156;47.486;12.074;2022-07-29T13:30:00;95136.53;;;30.66;88.56
33859;BME280;20156;47.486;12.074;2022-07-29T13:32:28;95139.84;;;30.96;88.26
33859;BME280;20156;47.486;12.074;2022-07-29T13:34:57;95154.22;;;29.72;100.00
33859;BME280;20156;47.486;12.074;2022-07-29T13:37:23;95144.75;;;29.95;100.00
33859;BME280;20156;47.486;12.074;2022-07-29T13:39:48;95143.75;;;30.20;97.52
33859;BME280;20156;47.486;12.074;2022-07-29T13:42:14;95135.97;;;31.18;91.56
33859;BME280;20156;47.486;12.074;2022-07-29T13:44:40;95136.69;;;30.49;97.25